Time;durP1;ratioP1;P1;durP2;ratioP2;P2;SDS_P1;SDS_P2;PMS_P1;PMS_P2;Temp;Humidity;BMP_temperature;BMP_pressure;BME280_temperature;BME280_humidity;BME280_pressure;Samples;Min_cycle;Max_cycle;Signal;HPM_P1;HPM_P2
2022/09/01 00:01:14;;;;;;;;;;;22.00;79.10;;;;;;4848405;29;20479;-83
2022/09/01 00:03:42;;;;;;;;;;;22.00;78.70;;;;;;4859206;29;19924;-81
2022/09/01 00:06:10;;;;;;;;;;;22.00;78.80;;;;;;4856747;29;20381;-80
2022/09/01 00:08:37;;;;;;;;;;;22.10;78.40;;;;;;4858698;29;20015;-80
2022/09/01 00:11:03;;;;;;;;;;;22.00;77.40;;;;;;4854763;29;20015;-83
2022/09/01 00:13:32;;;;;;;;;;;22.10;74.60;;;;;;4845953;29;19992;-83
2022/09/01 00:16:02;;;;;;;;;;;22.10;74.40;;;;;;4848459;29;19924;-83
2022/09/01 00:18:31;;;;;;;;;;;22.20;73.30;;;;;;4864548;29;20022;-82
2022/09/01 00:20:58;;;;;;;;;;;22.20;72.40;;;;;;4863180;29;19963;-87
2022/09/01 00:23:26;;;;;;;;;;;22.20;71.60;;;;;;4864491;29;19976;-89
2022/09/01 00:25:53;;;;;;;;;;;22.20;71.30;;;;;;4857216;29;19924;-82
2022/09/01 00:28:20;;;;;;;;;;;22.30;71.00;;;;;;4852650;29;20381;-81
2022/09/01 00:30:54;;;;;;;;;;;22.30;71.10;;;;;;4864516;29;19986;-82
2022/09/01 00:33:21;;;;;;;;;;;22.30;70.80;;;;;;4856122;29;20022;-79
2022/09/01 00:35:48;;;;;;;;;;;22.30;69.60;;;;;;4854369;29;19924;-81
2022/09/01 00:38:15;;;;;;;;;;;22.40;67.90;;;;;;4864746;29;20365;-81
2022/09/01 00:40:42;;;;;;;;;;;22.40;67.80;;;;;;4867726;29;19932;-82
2022/09/01 00:43:14;;;;;;;;;;;22.40;66.20;;;;;;4850599;29;20401;-81
2022/09/01 00:45:41;;;;;;;;;;;22.40;66.20;;;;;;4849903;29;19908;-85
2022/09/01 00:48:08;;;;;;;;;;;22.50;66.20;;;;;;4862615;29;19949;-82
2022/09/01 00:50:38;;;;;;;;;;;22.50;66.80;;;;;;4843785;29;19924;-88
2022/09/01 00:53:05;;;;;;;;;;;22.50;66.10;;;;;;4849716;29;19928;-78
2022/09/01 00:55:33;;;;;;;;;;;22.50;65.70;;;;;;4853209;29;19932;-82
2022/09/01 00:58:01;;;;;;;;;;;22.60;65.30;;;;;;4858561;29;21460;-87
2022/09/01 01:00:29;;;;;;;;;;;22.60;65.10;;;;;;4863436;29;19924;-82
2022/09/01 01:02:56;;;;;;;;;;;22.60;65.30;;;;;;4861207;29;19924;-82
2022/09/01 01:05:35;;;;;;;;;;;22.60;65.20;;;;;;4871377;29;19973;-81
2022/09/01 01:08:03;;;;;;;;;;;22.50;65.10;;;;;;4853279;29;20385;-79
2022/09/01 01:10:31;;;;;;;;;;;22.50;65.40;;;;;;4869494;29;19952;-81
2022/09/01 01:13:00;;;;;;;;;;;22.50;65.70;;;;;;4855519;29;19952;-82
2022/09/01 01:15:27;;;;;;;;;;;22.50;65.90;;;;;;4864858;29;19967;-79
2022/09/01 01:17:55;;;;;;;;;;;22.40;65.90;;;;;;4859874;29;19908;-86
2022/09/01 01:23:16;;;;;;;;;;;22.40;66.10;;;;;;4860090;29;19925;-78
2022/09/01 01:25:43;;;;;;;;;;;22.40;66.50;;;;;;4863873;29;19966;-82
2022/09/01 01:28:14;;;;;;;;;;;22.40;66.30;;;;;;4863126;29;19956;-82
2022/09/01 01:30:43;;;;;;;;;;;22.40;66.50;;;;;;4869876;29;19924;-86
2022/09/01 01:33:10;;;;;;;;;;;22.40;66.70;;;;;;4866200;29;19924;-84
2022/09/01 01:35:37;;;;;;;;;;;22.40;72.40;;;;;;4850536;29;19932;-87
2022/09/01 01:38:06;;;;;;;;;;;22.40;76.00;;;;;;4861911;29;20405;-82
2022/09/01 01:40:34;;;;;;;;;;;22.40;80.10;;;;;;4858456;29;19977;-87
2022/09/01 01:43:01;;;;;;;;;;;22.40;80.50;;;;;;4845592;29;19924;-83
2022/09/01 01:45:28;;;;;;;;;;;22.30;80.90;;;;;;4851187;29;19940;-86
2022/09/01 01:47:55;;;;;;;;;;;22.40;80.70;;;;;;4848151;29;19924;-80
2022/09/01 01:50:24;;;;;;;;;;;22.40;79.70;;;;;;4858670;29;19932;-78
2022/09/01 01:52:51;;;;;;;;;;;22.40;78.50;;;;;;4852940;29;20342;-80
2022/09/01 01:55:27;;;;;;;;;;;22.20;77.50;;;;;;4858644;29;20452;-82
2022/09/01 01:57:55;;;;;;;;;;;22.20;77.90;;;;;;4855187;29;19953;-89
2022/09/01 02:03:43;;;;;;;;;;;22.10;78.10;;;;;;4858680;29;19927;-80
2022/09/01 02:06:10;;;;;;;;;;;22.00;77.30;;;;;;4845223;29;19932;-79
2022/09/01 02:08:38;;;;;;;;;;;22.00;76.40;;;;;;4848811;29;19924;-88
2022/09/01 02:11:05;;;;;;;;;;;21.90;75.40;;;;;;4855148;29;20401;-83
2022/09/01 02:13:32;;;;;;;;;;;22.00;75.50;;;;;;4857150;29;19977;-83
2022/09/01 02:16:06;;;;;;;;;;;22.00;74.80;;;;;;4851544;29;19924;-79
2022/09/01 02:18:37;;;;;;;;;;;22.00;74.80;;;;;;4856886;29;19929;-89
2022/09/01 02:21:09;;;;;;;;;;;22.00;74.90;;;;;;4848594;29;20381;-81
2022/09/01 02:23:42;;;;;;;;;;;22.00;75.10;;;;;;4848337;29;20441;-83
2022/09/01 02:26:10;;;;;;;;;;;21.90;75.50;;;;;;4866490;29;20444;-88
2022/09/01 02:28:44;;;;;;;;;;;21.90;75.60;;;;;;4845026;29;19924;-83
2022/09/01 02:31:11;;;;;;;;;;;21.80;75.90;;;;;;4851592;29;19959;-89
2022/09/01 02:33:39;;;;;;;;;;;21.90;75.60;;;;;;4861237;29;19931;-80
2022/09/01 02:36:07;;;;;;;;;;;21.90;75.30;;;;;;4848304;29;19928;-80
2022/09/01 02:38:34;;;;;;;;;;;21.90;75.10;;;;;;4864574;29;19963;-89
2022/09/01 02:41:04;;;;;;;;;;;21.90;75.40;;;;;;4847556;29;19924;-81
2022/09/01 02:43:31;;;;;;;;;;;21.90;75.50;;;;;;4855180;29;19957;-89
2022/09/01 02:45:59;;;;;;;;;;;21.80;76.20;;;;;;4853043;29;19970;-81
2022/09/01 02:48:35;;;;;;;;;;;21.80;76.50;;;;;;4851232;29;19973;-83
2022/09/01 02:51:03;;;;;;;;;;;21.70;76.90;;;;;;4854450;29;19924;-88
2022/09/01 02:53:33;;;;;;;;;;;21.70;76.60;;;;;;4841106;29;19975;-83
2022/09/01 02:56:01;;;;;;;;;;;21.60;76.90;;;;;;4847082;29;19928;-81
2022/09/01 02:58:29;;;;;;;;;;;21.50;77.30;;;;;;4850872;29;20389;-82
2022/09/01 03:00:56;;;;;;;;;;;21.50;78.10;;;;;;4861112;29;20407;-83
2022/09/01 03:03:24;;;;;;;;;;;21.40;79.30;;;;;;4861084;29;19932;-86
2022/09/01 03:05:55;;;;;;;;;;;21.40;78.00;;;;;;4854542;29;19931;-87
2022/09/01 03:08:23;;;;;;;;;;;21.30;78.10;;;;;;4862029;29;19960;-82
2022/09/01 03:10:50;;;;;;;;;;;21.30;78.30;;;;;;4861132;29;20381;-80
2022/09/01 03:13:19;;;;;;;;;;;21.30;78.80;;;;;;4847123;29;20346;-79
2022/09/01 03:15:46;;;;;;;;;;;21.20;78.60;;;;;;4847925;29;19955;-83
2022/09/01 03:18:13;;;;;;;;;;;21.20;78.60;;;;;;4860700;29;19924;-83
2022/09/01 03:20:45;;;;;;;;;;;21.20;79.10;;;;;;4857996;29;19963;-88
2022/09/01 03:23:13;;;;;;;;;;;21.10;79.60;;;;;;4862567;29;19931;-88
2022/09/01 03:25:45;;;;;;;;;;;21.10;79.70;;;;;;4858318;29;19928;-87
2022/09/01 03:28:12;;;;;;;;;;;21.10;80.50;;;;;;4861244;29;19924;-79
2022/09/01 03:30:43;;;;;;;;;;;21.10;80.40;;;;;;4859421;29;19959;-83
2022/09/01 03:33:10;;;;;;;;;;;21.10;80.40;;;;;;4864853;29;20358;-83
2022/09/01 03:35:37;;;;;;;;;;;21.00;81.50;;;;;;4851207;29;19924;-83
2022/09/01 03:38:04;;;;;;;;;;;21.00;81.50;;;;;;4861380;29;19927;-87
2022/09/01 03:40:33;;;;;;;;;;;20.90;82.10;;;;;;4852075;29;19976;-87
2022/09/01 03:43:01;;;;;;;;;;;20.80;83.00;;;;;;4861214;29;19947;-83
2022/09/01 03:45:29;;;;;;;;;;;20.70;82.50;;;;;;4860520;29;19999;-80
2022/09/01 03:47:56;;;;;;;;;;;20.70;82.30;;;;;;4862028;29;20469;-82
2022/09/01 03:50:23;;;;;;;;;;;20.70;82.30;;;;;;4860871;29;19927;-88
2022/09/01 03:52:52;;;;;;;;;;;20.60;83.40;;;;;;4851804;29;19928;-83
2022/09/01 03:55:26;;;;;;;;;;;20.60;83.40;;;;;;4855711;29;19963;-88
2022/09/01 03:57:53;;;;;;;;;;;20.50;83.90;;;;;;4859751;29;19966;-87
2022/09/01 04:00:22;;;;;;;;;;;20.50;83.50;;;;;;4844877;29;20450;-84
2022/09/01 04:02:50;;;;;;;;;;;20.40;83.20;;;;;;4858445;29;19924;-79
2022/09/01 04:05:23;;;;;;;;;;;20.40;83.30;;;;;;4848641;29;19924;-82
2022/09/01 04:07:50;;;;;;;;;;;20.30;83.90;;;;;;4844389;29;20449;-82
2022/09/01 04:10:17;;;;;;;;;;;20.30;83.80;;;;;;4845880;29;20381;-82
2022/09/01 04:12:44;;;;;;;;;;;20.30;84.30;;;;;;4850231;29;20301;-77
2022/09/01 04:15:12;;;;;;;;;;;20.20;87.00;;;;;;4858103;29;19959;-87
2022/09/01 04:20:24;;;;;;;;;;;20.10;87.10;;;;;;4861207;29;19980;-79
2022/09/01 04:22:51;;;;;;;;;;;20.10;85.30;;;;;;4847306;29;20008;-80
2022/09/01 04:25:22;;;;;;;;;;;19.90;86.20;;;;;;4859735;29;20004;-82
2022/09/01 04:27:49;;;;;;;;;;;19.90;85.80;;;;;;4861995;29;20359;-88
2022/09/01 04:30:16;;;;;;;;;;;19.90;85.40;;;;;;4861592;29;19980;-82
2022/09/01 04:32:45;;;;;;;;;;;19.90;86.10;;;;;;4847775;29;19940;-79
2022/09/01 04:35:15;;;;;;;;;;;19.70;87.60;;;;;;4862617;29;19976;-87
2022/09/01 04:37:42;;;;;;;;;;;19.60;88.40;;;;;;4863866;29;19924;-79
2022/09/01 04:40:09;;;;;;;;;;;19.50;88.10;;;;;;4851020;29;19988;-86
2022/09/01 04:42:37;;;;;;;;;;;19.50;87.80;;;;;;4847817;29;20304;-81
2022/09/01 04:45:05;;;;;;;;;;;19.40;87.60;;;;;;4860816;29;20309;-79
2022/09/01 04:47:40;;;;;;;;;;;19.40;87.60;;;;;;4857606;29;19932;-81
2022/09/01 04:50:16;;;;;;;;;;;19.30;87.20;;;;;;4845442;29;20396;-78
2022/09/01 04:52:43;;;;;;;;;;;19.30;86.80;;;;;;4844582;29;20023;-82
2022/09/01 04:55:20;;;;;;;;;;;19.30;86.60;;;;;;4846867;29;19976;-82
2022/09/01 04:57:48;;;;;;;;;;;19.30;87.50;;;;;;4848121;29;19924;-81
2022/09/01 05:00:21;;;;;;;;;;;19.20;88.10;;;;;;4860903;29;20360;-87
2022/09/01 05:02:52;;;;;;;;;;;19.20;87.50;;;;;;4862823;29;19924;-78
2022/09/01 05:05:19;;;;;;;;;;;19.20;87.50;;;;;;4862865;29;19970;-82
2022/09/01 05:07:51;;;;;;;;;;;19.10;88.60;;;;;;4850751;29;20400;-82
2022/09/01 05:10:20;;;;;;;;;;;19.10;89.90;;;;;;4853564;29;19924;-82
2022/09/01 05:12:47;;;;;;;;;;;19.00;89.70;;;;;;4862666;29;19924;-82
2022/09/01 05:15:16;;;;;;;;;;;19.00;89.30;;;;;;4852672;29;19980;-82
2022/09/01 05:17:42;;;;;;;;;;;19.00;89.60;;;;;;4861527;29;19924;-82
2022/09/01 05:20:10;;;;;;;;;;;19.00;90.10;;;;;;4850266;29;20282;-82
2022/09/01 05:22:40;;;;;;;;;;;19.00;91.20;;;;;;4855779;29;19924;-85
2022/09/01 05:25:13;;;;;;;;;;;18.90;91.50;;;;;;4860478;29;19931;-82
2022/09/01 05:27:41;;;;;;;;;;;18.90;91.40;;;;;;4847670;29;19967;-82
2022/09/01 05:30:08;;;;;;;;;;;18.90;91.60;;;;;;4856548;29;19986;-79
2022/09/01 05:32:36;;;;;;;;;;;19.00;92.20;;;;;;4861172;29;19963;-82
2022/09/01 05:35:07;;;;;;;;;;;18.90;92.70;;;;;;4855471;29;19923;-80
2022/09/01 05:37:36;;;;;;;;;;;18.90;92.50;;;;;;4857047;29;20374;-82
2022/09/01 05:40:05;;;;;;;;;;;18.90;92.80;;;;;;4859752;29;19934;-79
2022/09/01 05:42:32;;;;;;;;;;;18.90;92.90;;;;;;4855195;29;19944;-85
2022/09/01 05:45:00;;;;;;;;;;;19.00;92.90;;;;;;4861979;29;21283;-86
2022/09/01 05:47:27;;;;;;;;;;;19.00;92.80;;;;;;4857760;29;19931;-78
2022/09/01 05:49:55;;;;;;;;;;;19.00;92.80;;;;;;4856047;29;19953;-82
2022/09/01 05:52:24;;;;;;;;;;;19.10;92.70;;;;;;4865735;29;19931;-79
2022/09/01 05:54:52;;;;;;;;;;;19.20;92.40;;;;;;4843005;29;19928;-79
2022/09/01 05:57:19;;;;;;;;;;;19.30;92.00;;;;;;4851173;29;20488;-87
2022/09/01 06:00:09;;;;;;;;;;;19.40;91.60;;;;;;4857273;29;19977;-79
2022/09/01 06:02:38;;;;;;;;;;;19.50;91.30;;;;;;4846822;29;19955;-81
2022/09/01 06:05:06;;;;;;;;;;;19.60;90.70;;;;;;4861102;29;19935;-86
2022/09/01 06:07:34;;;;;;;;;;;19.70;90.20;;;;;;4852481;29;19927;-82
2022/09/01 06:10:01;;;;;;;;;;;19.80;89.00;;;;;;4862823;29;20460;-85
2022/09/01 06:12:28;;;;;;;;;;;20.00;89.60;;;;;;4859924;29;19966;-86
2022/09/01 06:14:55;;;;;;;;;;;20.00;89.70;;;;;;4857998;29;19927;-78
2022/09/01 06:17:26;;;;;;;;;;;20.10;87.40;;;;;;4843028;29;19972;-81
2022/09/01 06:19:56;;;;;;;;;;;20.20;85.00;;;;;;4862379;29;19928;-78
2022/09/01 06:22:25;;;;;;;;;;;20.30;84.30;;;;;;4846892;29;19928;-81
2022/09/01 06:24:53;;;;;;;;;;;20.30;84.00;;;;;;4851927;29;19923;-81
2022/09/01 06:27:27;;;;;;;;;;;20.40;83.90;;;;;;4860102;29;20325;-81
2022/09/01 06:29:56;;;;;;;;;;;20.50;83.70;;;;;;4853332;29;19924;-85
2022/09/01 06:32:24;;;;;;;;;;;20.50;83.60;;;;;;4855451;29;19923;-81
2022/09/01 06:34:52;;;;;;;;;;;20.50;82.90;;;;;;4842787;29;19931;-81
2022/09/01 06:37:21;;;;;;;;;;;20.60;81.60;;;;;;4849104;29;19932;-78
2022/09/01 06:39:49;;;;;;;;;;;20.60;81.40;;;;;;4852672;29;20354;-80
2022/09/01 06:42:18;;;;;;;;;;;20.70;83.00;;;;;;4844641;29;19959;-83
2022/09/01 06:44:48;;;;;;;;;;;20.70;83.30;;;;;;4858366;29;19932;-80
2022/09/01 06:47:15;;;;;;;;;;;20.80;83.60;;;;;;4849243;29;20346;-87
2022/09/01 06:49:45;;;;;;;;;;;20.80;82.50;;;;;;4858498;29;19924;-79
2022/09/01 06:52:12;;;;;;;;;;;20.80;81.80;;;;;;4849989;29;19932;-87
2022/09/01 06:54:42;;;;;;;;;;;20.90;81.50;;;;;;4859509;29;19928;-89
2022/09/01 06:57:09;;;;;;;;;;;21.00;79.80;;;;;;4843351;29;19924;-90
2022/09/01 06:59:56;;;;;;;;;;;21.00;77.90;;;;;;4860399;29;19923;-79
2022/09/01 07:02:23;;;;;;;;;;;21.10;76.40;;;;;;4850809;29;19932;-84
2022/09/01 07:04:53;;;;;;;;;;;21.20;75.20;;;;;;4849438;29;19924;-84
2022/09/01 07:07:21;;;;;;;;;;;21.30;72.90;;;;;;4866194;29;20007;-80
2022/09/01 07:10:08;;;;;;;;;;;21.40;74.10;;;;;;4855352;29;19970;-79
2022/09/01 07:12:54;;;;;;;;;;;21.50;73.10;;;;;;4856707;29;19956;-88
2022/09/01 07:15:38;;;;;;;;;;;21.60;72.50;;;;;;4864878;29;19971;-83
2022/09/01 07:18:25;;;;;;;;;;;21.70;70.70;;;;;;4846490;29;19959;-83
2022/09/01 07:20:53;;;;;;;;;;;21.80;67.20;;;;;;4859223;29;19978;-83
2022/09/01 07:23:42;;;;;;;;;;;21.80;67.40;;;;;;4857651;29;19930;-84
2022/09/01 07:26:29;;;;;;;;;;;21.90;67.00;;;;;;4856465;29;19924;-87
2022/09/01 07:28:57;;;;;;;;;;;22.00;67.50;;;;;;4856933;29;20396;-88
2022/09/01 07:31:30;;;;;;;;;;;22.10;66.40;;;;;;4865989;29;19930;-87
2022/09/01 07:34:18;;;;;;;0.10;0.10;;;22.30;64.60;;;;;;4861461;29;19931;-82
2022/09/01 07:37:05;;;;;;;0.10;0.10;;;22.40;65.60;;;;;;4851213;29;20529;-79
2022/09/01 07:39:52;;;;;;;0.20;0.20;;;22.60;64.60;;;;;;4850372;29;20505;-83
2022/09/01 07:42:21;;;;;;;0.10;0.10;;;22.90;62.90;;;;;;4849381;29;20839;-79
2022/09/01 07:45:10;;;;;;;0.10;0.10;;;23.10;63.40;;;;;;4851967;29;20957;-80
2022/09/01 07:47:55;;;;;;;0.10;0.10;;;23.40;61.50;;;;;;4861854;29;20433;-83
2022/09/01 07:50:25;;;;;;;0.10;0.10;;;23.60;61.50;;;;;;4862940;29;20787;-83
2022/09/01 07:53:08;;;;;;;0.10;0.10;;;23.70;60.20;;;;;;4855886;29;20429;-79
2022/09/01 07:55:40;;;;;;;0.10;0.10;;;23.90;60.00;;;;;;4849727;29;20870;-80
2022/09/01 07:58:10;;;;;;;0.10;0.10;;;24.00;61.50;;;;;;4855017;29;20501;-79
2022/09/01 08:00:39;;;;;;;0.10;0.10;;;24.10;61.10;;;;;;4868028;29;20068;-89
2022/09/01 08:03:06;;;;;;;0.20;0.20;;;24.20;61.00;;;;;;4861189;29;20061;-80
2022/09/01 08:05:33;;;;;;;0.10;0.10;;;24.30;62.50;;;;;;4862457;29;20061;-79
2022/09/01 08:08:00;;;;;;;0.10;0.10;;;24.40;61.70;;;;;;4860743;29;20062;-86
2022/09/01 08:10:27;;;;;;;0.10;0.10;;;24.40;59.80;;;;;;4862927;29;20053;-90
2022/09/01 08:12:54;;;;;;;0.10;0.10;;;24.50;59.40;;;;;;4853833;29;20106;-84
2022/09/01 08:15:23;;;;;;;0.10;0.10;;;24.60;60.70;;;;;;4856350;29;20141;-84
2022/09/01 08:18:11;;;;;;;0.10;0.10;;;24.60;61.30;;;;;;4855352;29;20399;-83
2022/09/01 08:20:44;;;;;;;0.10;0.10;;;24.60;60.00;;;;;;4859071;29;20140;-81
2022/09/01 08:23:13;;;;;;;0.20;0.20;;;24.90;61.50;;;;;;4854740;29;20391;-83
2022/09/01 08:25:43;;;;;;;0.10;0.10;;;24.80;60.30;;;;;;4857107;29;20061;-85
2022/09/01 08:28:11;;;;;;;0.13;0.13;;;24.90;61.00;;;;;;4848449;29;20066;-84
2022/09/01 08:30:41;;;;;;;0.45;0.10;;;25.10;59.00;;;;;;4847667;29;20057;-84
2022/09/01 08:33:18;;;;;;;0.30;0.13;;;25.20;59.40;;;;;;4849100;29;20209;-85
2022/09/01 08:35:47;;;;;;;0.10;0.10;;;25.30;58.20;;;;;;4854138;29;20530;-88
2022/09/01 08:38:14;;;;;;;0.10;0.10;;;25.40;57.10;;;;;;4844908;29;20069;-84
2022/09/01 08:40:49;;;;;;;0.15;0.15;;;25.40;57.70;;;;;;4845276;29;20061;-85
2022/09/01 08:43:34;;;;;;;0.10;0.10;;;25.20;60.90;;;;;;4849476;29;20098;-82
2022/09/01 08:46:22;;;;;;;0.10;0.10;;;25.20;60.40;;;;;;4842894;29;20061;-82
2022/09/01 08:48:56;;;;;;;0.10;0.10;;;25.20;60.40;;;;;;4863664;29;20065;-90
2022/09/01 08:51:56;;;;;;;0.10;0.10;;;25.30;59.80;;;;;;4857465;29;20521;-81
2022/09/01 08:54:28;;;;;;;0.10;0.10;;;25.30;60.40;;;;;;4849741;29;20097;-90
2022/09/01 08:57:08;;;;;;;0.10;0.10;;;25.30;60.90;;;;;;4859691;29;20072;-85
2022/09/01 08:59:35;;;;;;;0.10;0.10;;;25.50;61.90;;;;;;4858637;29;20461;-86
2022/09/01 09:02:26;;;;;;;0.20;0.20;;;25.80;62.30;;;;;;4859816;29;20422;-84
2022/09/01 09:05:05;;;;;;;0.10;0.10;;;26.10;61.90;;;;;;4859100;29;20084;-83
2022/09/01 09:08:05;;;;;;;0.10;0.10;;;26.10;59.80;;;;;;4861182;29;21129;-79
2022/09/01 09:10:49;;;;;;;0.10;0.10;;;26.30;59.10;;;;;;4856617;29;20064;-80
2022/09/01 09:13:44;;;;;;;0.10;0.10;;;26.50;58.00;;;;;;4860898;29;20118;-81
2022/09/01 09:16:27;;;;;;;0.10;0.10;;;26.40;57.50;;;;;;4859922;29;20073;-81
2022/09/01 09:18:59;;;;;;;0.10;0.10;;;26.30;56.70;;;;;;4855243;29;20495;-81
2022/09/01 09:21:36;;;;;;;0.10;0.10;;;26.10;57.70;;;;;;4844291;29;20125;-81
2022/09/01 09:24:28;;;;;;;0.10;0.10;;;26.00;58.20;;;;;;4857569;29;20065;-84
2022/09/01 09:27:05;;;;;;;0.10;0.10;;;26.00;57.50;;;;;;4853869;29;20180;-81
2022/09/01 09:29:35;;;;;;;0.10;0.10;;;25.80;58.60;;;;;;4860508;29;20499;-81
2022/09/01 09:32:05;;;;;;;0.10;0.10;;;26.00;59.00;;;;;;4858936;29;20057;-84
2022/09/01 09:34:49;;;;;;;0.10;0.10;;;26.20;58.20;;;;;;4844755;29;20084;-85
2022/09/01 09:37:29;;;;;;;0.20;0.20;;;26.50;57.50;;;;;;4858695;29;20065;-83
2022/09/01 09:40:25;;;;;;;0.10;0.10;;;26.60;57.70;;;;;;4856430;29;20472;-81
2022/09/01 09:42:55;;;;;;;0.10;0.10;;;26.80;55.90;;;;;;4849539;29;20058;-83
2022/09/01 09:45:25;;;;;;;0.10;0.10;;;26.90;56.00;;;;;;4858464;29;20076;-80
2022/09/01 09:47:56;;;;;;;0.10;0.10;;;26.90;56.20;;;;;;4843739;29;20061;-84
2022/09/01 09:50:30;;;;;;;0.10;0.10;;;26.90;55.10;;;;;;4849376;29;20062;-84
2022/09/01 09:53:25;;;;;;;0.10;0.10;;;27.10;54.20;;;;;;4847744;29;20065;-84
2022/09/01 09:55:57;;;;;;;0.10;0.10;;;27.30;52.60;;;;;;4867598;29;20090;-84
2022/09/01 09:58:33;;;;;;;0.13;0.10;;;27.50;53.40;;;;;;4850639;29;20065;-83
2022/09/01 10:01:29;;;;;;;0.10;0.10;;;27.70;53.60;;;;;;4857918;29;20115;-84
2022/09/01 10:03:58;;;;;;;;;;;27.50;52.90;;;;;;4860003;29;20110;-89
2022/09/01 10:06:34;;;;;;;0.10;0.10;;;27.20;53.30;;;;;;4852773;29;19932;-82
2022/09/01 10:09:26;;;;;;;0.10;0.10;;;27.30;52.20;;;;;;4852217;29;20085;-89
2022/09/01 10:11:57;;;;;;;0.10;0.10;;;27.40;53.10;;;;;;4845845;29;20061;-91
2022/09/01 10:14:30;;;;;;;0.10;0.10;;;27.50;51.70;;;;;;4846961;29;20065;-84
2022/09/01 10:17:27;;;;;;;0.10;0.10;;;27.40;52.20;;;;;;4861360;29;20081;-81
2022/09/01 10:20:08;;;;;;;0.10;0.10;;;27.50;52.20;;;;;;4867043;29;20073;-81
2022/09/01 10:22:39;;;;;;;0.10;0.10;;;27.60;52.80;;;;;;4852264;29;20125;-81
2022/09/01 10:25:12;;;;;;;0.00;0.00;;;27.70;51.60;;;;;;4846357;29;20140;-90
2022/09/01 10:27:42;;;;;;;;;;;27.80;52.40;;;;;;4853900;29;20061;-88
2022/09/01 10:30:21;;;;;;;0.10;0.10;;;27.90;52.00;;;;;;4863153;29;19928;-87
2022/09/01 10:32:57;;;;;;;0.10;0.10;;;27.50;52.00;;;;;;4862303;29;20459;-85
2022/09/01 10:35:43;;;;;;;0.10;0.10;;;27.40;52.00;;;;;;4862328;29;20062;-86
2022/09/01 10:38:33;;;;;;;0.10;0.10;;;27.30;53.10;;;;;;4848107;29;20058;-84
2022/09/01 10:41:09;;;;;;;0.03;0.03;;;27.00;53.90;;;;;;4853415;29;20092;-84
2022/09/01 10:43:49;;;;;;;0.10;0.10;;;27.10;54.20;;;;;;4867994;29;20148;-88
2022/09/01 10:46:19;;;;;;;0.10;0.10;;;27.20;54.60;;;;;;4854354;29;20057;-85
2022/09/01 10:48:56;;;;;;;0.10;0.10;;;27.30;53.60;;;;;;4849608;29;20403;-85
2022/09/01 10:51:29;;;;;;;0.10;0.10;;;27.50;53.00;;;;;;4856740;29;20094;-85
2022/09/01 10:54:40;;;;;;;0.10;0.10;;;27.50;53.10;;;;;;4870661;29;20058;-90
2022/09/01 10:57:22;;;;;;;;;;;27.60;53.10;;;;;;4859508;29;20068;-80
2022/09/01 10:59:56;;;;;;;;;;;27.30;53.20;;;;;;4861027;29;19924;-84
2022/09/01 11:02:24;;;;;;;;;;;27.60;54.60;;;;;;4849730;29;19928;-84
2022/09/01 11:04:53;;;;;;;0.10;0.10;;;27.70;53.50;;;;;;4856133;29;19924;-84
2022/09/01 11:07:22;;;;;;;0.10;0.10;;;27.70;53.60;;;;;;4860319;29;20418;-81
2022/09/01 11:10:35;;;;;;;0.10;0.10;;;27.20;53.00;;;;;;4860366;29;20557;-89
2022/09/01 11:13:20;;;;;;;0.10;0.10;;;27.10;53.50;;;;;;4861702;29;20089;-84
2022/09/01 11:15:48;;;;;;;0.52;0.10;;;27.30;54.00;;;;;;4866005;29;20053;-84
2022/09/01 11:18:24;;;;;;;0.10;0.10;;;27.60;52.60;;;;;;4852373;29;20133;-85
2022/09/01 11:20:54;;;;;;;0.10;0.10;;;27.90;51.70;;;;;;4860101;29;20093;-80
2022/09/01 11:23:29;;;;;;;0.10;0.10;;;28.00;51.50;;;;;;4849566;29;20057;-83
2022/09/01 11:26:04;;;;;;;0.00;0.00;;;28.20;51.00;;;;;;4868083;29;20129;-90
2022/09/01 11:28:46;;;;;;;0.20;0.10;;;28.60;50.50;;;;;;4854463;29;20054;-84
2022/09/01 11:31:23;;;;;;;0.10;0.10;;;28.80;49.80;;;;;;4862442;29;20523;-81
2022/09/01 11:34:00;;;;;;;0.00;0.00;;;28.90;47.80;;;;;;4855817;29;20478;-85
2022/09/01 11:36:35;;;;;;;1.17;0.10;;;28.70;48.10;;;;;;4847008;29;20057;-88
2022/09/01 11:39:31;;;;;;;0.10;0.10;;;28.50;49.10;;;;;;4861774;29;20114;-85
2022/09/01 11:42:00;;;;;;;;;;;28.50;49.10;;;;;;4863346;29;20487;-89
2022/09/01 11:45:05;;;;;;;0.00;0.00;;;28.70;48.80;;;;;;4852952;29;19953;-82
2022/09/01 11:47:36;;;;;;;0.10;0.10;;;28.90;49.40;;;;;;4856833;29;20471;-89
2022/09/01 11:50:05;;;;;;;0.10;0.10;;;29.20;48.60;;;;;;4853260;29;20422;-89
2022/09/01 11:52:37;;;;;;;0.10;0.10;;;29.10;48.40;;;;;;4860986;29;20057;-88
2022/09/01 11:55:06;;;;;;;0.00;0.00;;;29.00;48.00;;;;;;4859659;29;20057;-89
2022/09/01 11:57:38;;;;;;;0.08;0.08;;;28.90;46.80;;;;;;4853074;29;20693;-83
2022/09/01 12:00:26;;;;;;;0.10;0.10;;;28.90;45.50;;;;;;4863552;29;20065;-89
2022/09/01 12:02:53;;;;;;;0.00;0.00;;;28.70;46.60;;;;;;4861955;29;20521;-89
2022/09/01 12:05:33;;;;;;;0.00;0.00;;;28.80;45.50;;;;;;4860047;29;20093;-82
2022/09/01 12:08:17;;;;;;;0.08;0.08;;;28.70;45.90;;;;;;4854026;29;20062;-83
2022/09/01 12:10:50;;;;;;;0.10;0.10;;;28.70;47.00;;;;;;4842371;29;20069;-82
2022/09/01 12:13:20;;;;;;;0.00;0.00;;;28.90;45.50;;;;;;4860753;29;20057;-88
2022/09/01 12:16:03;;;;;;;0.10;0.08;;;28.90;45.70;;;;;;4849751;29;20144;-83
2022/09/01 12:18:47;;;;;;;0.00;0.00;;;28.80;44.50;;;;;;4847035;29;20049;-85
2022/09/01 12:21:41;;;;;;;0.10;0.10;;;29.20;46.20;;;;;;4846577;29;20109;-83
2022/09/01 12:24:16;;;;;;;0.10;0.10;;;29.80;44.00;;;;;;4842800;29;20077;-82
2022/09/01 12:26:44;;;;;;;;;;;30.00;42.80;;;;;;4851835;29;20062;-84
2022/09/01 12:29:15;;;;;;;0.00;0.00;;;30.20;44.10;;;;;;4856304;29;19928;-80
2022/09/01 12:31:45;;;;;;;0.00;0.00;;;30.00;41.60;;;;;;4861377;29;20566;-85
2022/09/01 12:34:43;;;;;;;0.22;0.10;;;29.90;42.40;;;;;;4848787;29;20407;-85
2022/09/01 12:37:13;;;;;;;;;;;29.10;44.40;;;;;;4857494;29;20102;-84
2022/09/01 12:39:49;;;;;;;0.00;0.00;;;29.30;45.30;;;;;;4853278;29;20011;-84
2022/09/01 12:42:18;;;;;;;;;;;29.70;43.30;;;;;;4859870;29;20096;-85
2022/09/01 12:44:47;;;;;;;0.00;0.00;;;29.90;41.20;;;;;;4861874;29;19970;-85
2022/09/01 12:47:46;;;;;;;0.10;0.10;;;30.30;44.00;;;;;;4859556;29;20088;-86
2022/09/01 12:50:13;;;;;;;0.00;0.00;;;30.50;43.50;;;;;;4859868;29;20128;-91
2022/09/01 12:52:51;;;;;;;0.00;0.00;;;30.10;43.50;;;;;;4865055;29;20434;-84
2022/09/01 12:55:20;;;;;;;;;;;29.50;45.60;;;;;;4847643;29;20078;-86
2022/09/01 12:58:08;;;;;;;;;;;29.50;46.80;;;;;;4866134;29;19944;-90
2022/09/01 13:00:37;;;;;;;;;;;29.70;45.10;;;;;;4859591;29;19928;-91
2022/09/01 13:03:12;;;;;;;0.03;0.03;;;29.60;45.70;;;;;;4866864;29;19928;-86
2022/09/01 13:05:41;;;;;;;;;;;28.90;45.50;;;;;;4847729;29;20542;-86
2022/09/01 13:08:27;;;;;;;;;;;28.80;46.80;;;;;;4847504;29;19995;-82
2022/09/01 13:11:14;;;;;;;;;;;28.20;46.30;;;;;;4855825;29;19940;-84
2022/09/01 13:13:41;;;;;;;;;;;28.20;46.80;;;;;;4857878;29;19924;-90
2022/09/01 13:16:12;;;;;;;;;;;28.20;46.00;;;;;;4857062;29;19931;-83
2022/09/01 13:18:40;;;;;;;;;;;28.50;47.60;;;;;;4864303;29;20393;-84
2022/09/01 13:21:28;;;;;;;0.10;0.10;;;28.90;46.80;;;;;;4848384;29;19930;-91
2022/09/01 13:23:56;;;;;;;0.10;0.10;;;29.10;47.80;;;;;;4845745;29;20066;-83
2022/09/01 13:26:25;;;;;;;0.08;0.08;;;29.20;47.70;;;;;;4854063;29;20089;-85
2022/09/01 13:28:52;;;;;;;0.10;0.10;;;28.90;46.90;;;;;;4851272;29;20087;-84
2022/09/01 13:31:19;;;;;;;;;;;28.80;45.90;;;;;;4843770;29;20061;-90
2022/09/01 13:33:55;;;;;;;;;;;28.60;46.80;;;;;;4845184;29;20335;-85
2022/09/01 13:36:41;;;;;;;;;;;28.30;48.20;;;;;;4860001;29;20011;-85
2022/09/01 13:39:13;;;;;;;;;;;28.20;47.00;;;;;;4860894;29;19924;-91
2022/09/01 13:41:41;;;;;;;;;;;28.70;47.60;;;;;;4852304;29;19924;-84
2022/09/01 13:44:09;;;;;;;;;;;29.10;44.20;;;;;;4860725;29;20373;-85
2022/09/01 13:46:36;;;;;;;;;;;29.20;45.40;;;;;;4849796;29;19924;-82
2022/09/01 13:49:23;;;;;;;0.20;0.20;;;29.20;45.30;;;;;;4854911;29;20002;-82
2022/09/01 13:52:10;;;;;;;;;;;28.90;46.20;;;;;;4854363;29;20066;-86
2022/09/01 13:54:37;;;;;;;;;;;28.90;46.40;;;;;;4862762;29;19928;-82
2022/09/01 13:57:04;;;;;;;;;;;29.00;45.90;;;;;;4855665;29;19924;-85
2022/09/01 13:59:31;;;;;;;;;;;29.20;46.70;;;;;;4857335;29;19928;-82
2022/09/01 14:01:59;;;;;;;;;;;29.30;46.00;;;;;;4842046;29;20310;-82
2022/09/01 14:04:26;;;;;;;;;;;29.30;45.60;;;;;;4844219;29;19972;-85
2022/09/01 14:06:53;;;;;;;;;;;29.30;46.10;;;;;;4848623;29;19932;-90
2022/09/01 14:09:24;;;;;;;;;;;29.30;45.80;;;;;;4860676;29;19924;-86
2022/09/01 14:11:54;;;;;;;;;;;29.30;46.60;;;;;;4845169;29;20386;-87
2022/09/01 14:14:21;;;;;;;0.38;0.10;;;29.70;45.50;;;;;;4857334;29;19925;-83
2022/09/01 14:16:48;;;;;;;0.10;0.10;;;29.60;44.70;;;;;;4848682;29;20058;-87
2022/09/01 14:19:16;;;;;;;0.10;0.10;;;29.30;46.20;;;;;;4848523;29;20089;-91
2022/09/01 14:21:43;;;;;;;;;;;29.20;45.20;;;;;;4844735;29;20070;-83